createdAt,value
2022-08-16T00:02:30.485Z,99871.41
2022-08-16T00:04:59.780Z,99869.91
2022-08-16T00:07:29.099Z,99886.19
2022-08-16T00:09:59.735Z,99864.47
2022-08-16T00:12:30.666Z,99888.31
2022-08-16T00:15:00.625Z,99890.75
2022-08-16T00:17:28.164Z,99882.13
2022-08-16T00:19:55.478Z,99884.75
2022-08-16T00:22:25.500Z,99862.53
2022-08-16T00:24:54.694Z,99870.31
2022-08-16T00:27:22.758Z,99867.13
2022-08-16T00:30:08.780Z,99891.44
2022-08-16T00:32:39.025Z,99895.94
2022-08-16T00:35:11.028Z,99899.47
2022-08-16T00:37:56.743Z,99904.31
2022-08-16T00:40:50.967Z,99898.06
2022-08-16T00:43:42.930Z,99901.31
2022-08-16T00:46:33.042Z,99901.00
2022-08-16T00:49:04.614Z,99883.50
2022-08-16T00:51:31.249Z,99904.03
2022-08-16T00:53:57.956Z,99909.31
2022-08-16T00:56:55.471Z,99903.00
2022-08-16T00:59:17.277Z,99881.81
2022-08-16T01:01:44.980Z,99895.41
2022-08-16T01:04:30.149Z,99898.34
2022-08-16T01:07:01.671Z,99873.66
2022-08-16T01:09:34.914Z,99903.31
2022-08-16T01:12:08.464Z,99903.47
2022-08-16T01:14:49.549Z,99902.88
2022-08-16T01:17:17.012Z,99859.22
2022-08-16T01:19:46.745Z,99891.41
2022-08-16T01:22:47.862Z,99899.47
2022-08-16T01:25:08.523Z,99905.94
2022-08-16T01:27:39.647Z,99890.13
2022-08-16T01:30:19.987Z,99905.72
2022-08-16T01:33:01.745Z,99896.16
2022-08-16T01:35:42.592Z,99901.50
2022-08-16T01:38:20.021Z,99897.25
2022-08-16T01:40:47.720Z,99859.06
2022-08-16T01:43:17.295Z,99893.88
2022-08-16T01:45:44.105Z,99888.03
2022-08-16T01:48:19.586Z,99892.22
2022-08-16T01:51:08.157Z,99873.56
2022-08-16T01:53:41.263Z,99882.00
2022-08-16T01:56:23.205Z,99853.78
2022-08-16T01:58:51.435Z,99856.81
2022-08-16T02:01:18.341Z,99895.63
2022-08-16T02:03:44.979Z,99854.16
2022-08-16T02:06:34.706Z,99886.53
2022-08-16T02:09:05.585Z,99883.22
2022-08-16T02:11:47.653Z,99880.31
2022-08-16T02:14:21.549Z,99891.19
2022-08-16T02:16:49.248Z,99888.13
2022-08-16T02:19:18.248Z,99844.84
2022-08-16T02:22:07.712Z,99898.75
2022-08-16T02:24:41.230Z,99902.88
2022-08-16T02:27:10.432Z,99885.00
2022-08-16T02:29:37.980Z,99899.28
2022-08-16T02:32:49.878Z,99875.84
2022-08-16T02:34:56.500Z,99865.38
2022-08-16T02:37:23.245Z,99897.06
2022-08-16T02:39:54.188Z,99870.91
2022-08-16T02:42:21.398Z,99862.00
2022-08-16T02:44:49.003Z,99896.03
2022-08-16T02:47:24.947Z,99879.16
2022-08-16T02:50:28.020Z,99881.38
2022-08-16T02:52:39.300Z,99890.53
2022-08-16T02:55:11.174Z,99868.03
2022-08-16T02:57:42.576Z,99884.97
2022-08-16T03:00:34.574Z,99900.31
2022-08-16T03:03:03.386Z,99895.59
2022-08-16T03:05:31.751Z,99884.88
2022-08-16T03:08:00.204Z,99895.19
2022-08-16T03:10:33.367Z,99887.97
2022-08-16T03:13:01.005Z,99905.63
2022-08-16T03:15:28.293Z,99874.63
2022-08-16T03:17:55.818Z,99884.72
2022-08-16T03:20:32.379Z,99899.69
2022-08-16T03:22:59.654Z,99884.28
2022-08-16T03:25:43.967Z,99898.09
2022-08-16T03:28:11.064Z,99904.50
2022-08-16T03:30:38.285Z,99908.59
2022-08-16T03:33:05.515Z,99904.91
2022-08-16T03:35:35.994Z,99907.75
2022-08-16T03:38:04.878Z,99910.38
2022-08-16T03:40:51.787Z,99910.13
2022-08-16T03:43:20.118Z,99879.19
2022-08-16T03:45:48.302Z,99910.94
2022-08-16T03:48:18.238Z,99895.38
2022-08-16T03:50:59.862Z,99882.97
2022-08-16T03:53:37.921Z,99898.47
2022-08-16T03:56:07.515Z,99898.03
2022-08-16T03:58:36.996Z,99911.34
2022-08-16T04:01:04.561Z,99890.75
2022-08-16T04:03:33.532Z,99909.44
2022-08-16T04:06:02.174Z,99888.94
2022-08-16T04:08:31.194Z,99904.72
2022-08-16T04:10:58.156Z,99919.53
2022-08-16T04:14:01.460Z,99926.00
2022-08-16T04:16:26.462Z,99917.00
2022-08-16T04:19:02.434Z,99916.31
2022-08-16T04:21:32.933Z,99875.38
2022-08-16T04:24:00.307Z,99901.50
2022-08-16T04:26:31.050Z,99925.50
2022-08-16T04:29:14.946Z,99932.53
2022-08-16T04:31:56.459Z,99937.13
2022-08-16T04:34:27.421Z,99928.09
2022-08-16T04:36:54.836Z,99932.56
2022-08-16T04:39:24.241Z,99930.94
2022-08-16T04:41:57.026Z,99909.78
2022-08-16T04:44:52.455Z,99938.38
2022-08-16T04:47:21.659Z,99941.41
2022-08-16T04:49:52.547Z,99943.69
2022-08-16T04:52:32.690Z,99945.38
2022-08-16T04:55:07.547Z,99946.63
2022-08-16T04:57:34.571Z,99929.59
2022-08-16T05:00:32.098Z,99920.88
2022-08-16T05:02:54.841Z,99957.63
2022-08-16T05:05:23.345Z,99934.72
2022-08-16T05:07:58.167Z,99955.75
2022-08-16T05:10:29.726Z,99947.06
2022-08-16T05:12:57.681Z,99924.25
2022-08-16T05:15:24.602Z,99960.03
2022-08-16T05:17:58.785Z,99950.25
2022-08-16T05:20:35.594Z,99932.56
2022-08-16T05:23:11.789Z,99925.84
2022-08-16T05:25:41.065Z,99958.97
2022-08-16T05:28:14.826Z,99950.75
2022-08-16T05:30:41.472Z,99950.00
2022-08-16T05:33:16.914Z,99961.56
2022-08-16T05:35:54.900Z,99970.28
2022-08-16T05:38:30.886Z,99953.84
2022-08-16T05:41:04.073Z,99971.84
2022-08-16T05:43:43.329Z,99936.66
2022-08-16T05:46:29.992Z,99958.38
2022-08-16T05:49:05.721Z,99980.06
2022-08-16T05:51:38.429Z,99938.97
2022-08-16T05:54:06.772Z,99982.97
2022-08-16T05:56:34.156Z,99978.09
2022-08-16T05:59:06.327Z,99942.91
2022-08-16T06:01:38.968Z,99973.69
2022-08-16T06:04:13.633Z,99950.44
2022-08-16T06:06:55.847Z,99981.84
2022-08-16T06:09:25.204Z,99984.38
2022-08-16T06:11:52.139Z,99962.31
2022-08-16T06:14:19.170Z,99958.69
2022-08-16T06:16:50.839Z,99952.47
2022-08-16T06:19:18.127Z,99982.16
2022-08-16T06:21:45.629Z,99971.72
2022-08-16T06:24:53.979Z,99970.03
2022-08-16T06:27:08.069Z,99982.97
2022-08-16T06:29:34.637Z,99969.81
2022-08-16T06:32:01.252Z,99971.56
2022-08-16T06:34:31.527Z,99994.47
2022-08-16T06:37:16.509Z,99979.56
2022-08-16T06:39:49.636Z,99993.84
2022-08-16T06:42:18.374Z,99982.34
2022-08-16T06:44:46.278Z,99982.19
2022-08-16T06:47:17.190Z,99973.91
2022-08-16T06:49:52.936Z,100002.34
2022-08-16T06:52:59.757Z,99987.91
2022-08-16T06:55:13.516Z,100013.72
2022-08-16T06:57:40.711Z,99998.47
2022-08-16T07:00:24.111Z,100017.72
2022-08-16T07:02:52.923Z,99999.72
2022-08-16T07:05:20.630Z,100017.53
2022-08-16T07:07:54.075Z,100023.81
2022-08-16T07:10:25.705Z,100014.50
2022-08-16T07:13:03.398Z,100002.03
2022-08-16T07:15:34.836Z,100018.25
2022-08-16T07:18:01.810Z,99979.16
2022-08-16T07:20:43.559Z,100002.34
2022-08-16T07:23:15.529Z,100023.47
2022-08-16T07:25:42.566Z,100014.13
2022-08-16T07:28:12.127Z,100029.13
2022-08-16T07:30:48.319Z,100026.84
2022-08-16T07:33:51.206Z,100031.66
2022-08-16T07:36:07.001Z,100003.78
2022-08-16T07:38:34.345Z,100035.06
2022-08-16T07:41:01.917Z,100013.50
2022-08-16T07:43:36.386Z,100006.38
2022-08-16T07:46:07.321Z,100013.81
2022-08-16T07:48:55.210Z,100012.88
2022-08-16T07:51:22.554Z,100008.50
2022-08-16T07:54:09.058Z,100014.78
2022-08-16T07:56:37.544Z,100035.56
2022-08-16T07:59:05.047Z,100036.81
2022-08-16T08:01:31.967Z,100036.84
2022-08-16T08:03:58.885Z,100020.13
2022-08-16T08:06:29.592Z,100032.78
2022-08-16T08:08:57.260Z,100037.63
2022-08-16T08:11:24.885Z,100040.44
2022-08-16T08:13:55.745Z,100048.16
2022-08-16T08:16:30.250Z,100046.41
2022-08-16T08:19:01.156Z,100042.56
2022-08-16T08:22:00.190Z,100056.75
2022-08-16T08:24:18.192Z,100051.41
2022-08-16T08:26:44.760Z,100052.50
2022-08-16T08:29:23.077Z,100036.75
2022-08-16T08:31:52.824Z,100054.56
2022-08-16T08:34:19.621Z,100068.56
2022-08-16T08:36:46.181Z,100062.22
2022-08-16T08:39:15.451Z,100058.06
2022-08-16T08:41:49.430Z,100067.81
2022-08-16T08:44:29.192Z,100047.97
2022-08-16T08:47:01.578Z,100073.66
2022-08-16T08:49:46.177Z,100070.59
2022-08-16T08:52:35.426Z,100067.56
2022-08-16T08:55:10.303Z,100071.06
2022-08-16T08:57:42.026Z,100054.34
2022-08-16T09:00:13.686Z,100067.66
2022-08-16T09:02:46.479Z,100047.22
2022-08-16T09:05:20.361Z,100061.06
2022-08-16T09:08:00.587Z,100067.66
2022-08-16T09:10:30.109Z,100067.50
2022-08-16T09:12:58.418Z,100074.03
2022-08-16T09:15:26.353Z,100066.19
2022-08-16T09:18:00.548Z,100071.75
2022-08-16T09:20:29.625Z,100053.66
2022-08-16T09:22:57.162Z,100081.59
2022-08-16T09:25:26.071Z,100084.34
2022-08-16T09:27:58.070Z,100071.06
2022-08-16T09:30:34.133Z,100060.44
2022-08-16T09:33:10.495Z,100063.09
2022-08-16T09:35:39.040Z,100063.41
2022-08-16T09:38:08.694Z,100062.53
2022-08-16T09:40:42.649Z,100064.25
2022-08-16T09:43:21.037Z,100054.47
2022-08-16T09:45:57.974Z,100057.88
2022-08-16T09:48:43.978Z,100034.56
2022-08-16T09:51:13.266Z,100055.16
2022-08-16T09:53:41.037Z,100047.19
2022-08-16T09:56:20.763Z,100025.34
2022-08-16T09:59:03.712Z,100033.09
2022-08-16T10:01:33.405Z,100046.31
2022-08-16T10:04:02.891Z,100039.31
2022-08-16T10:06:33.195Z,100036.28
2022-08-16T10:09:06.226Z,99995.00
2022-08-16T10:11:53.822Z,100011.25
2022-08-16T10:14:32.713Z,100012.34
2022-08-16T10:17:05.135Z,100035.53
2022-08-16T10:19:32.762Z,100041.31
2022-08-16T10:22:04.921Z,100014.25
2022-08-16T10:24:32.672Z,100027.28
2022-08-16T10:27:25.643Z,100032.06
2022-08-16T10:30:01.400Z,100017.19
2022-08-16T10:32:35.503Z,100034.47
2022-08-16T10:35:06.591Z,100033.13
2022-08-16T10:37:36.528Z,100026.66
2022-08-16T10:40:29.632Z,100024.00
2022-08-16T10:42:55.110Z,100041.47
2022-08-16T10:45:21.759Z,100044.91
2022-08-16T10:48:00.779Z,100033.25
2022-08-16T10:50:31.507Z,100040.22
2022-08-16T10:52:59.448Z,100030.13
2022-08-16T10:55:45.014Z,100002.09
2022-08-16T10:58:17.005Z,100015.91
2022-08-16T11:00:46.229Z,100032.59
2022-08-16T11:06:03.221Z,100037.72
2022-08-16T11:08:37.011Z,100031.03
2022-08-16T11:11:13.004Z,100044.81
2022-08-16T11:14:10.964Z,100043.63
2022-08-16T11:19:20.367Z,100037.69
2022-08-16T11:24:42.658Z,100045.06
2022-08-16T11:27:23.158Z,100028.91
2022-08-16T11:29:52.883Z,100050.72
2022-08-16T11:32:28.384Z,100045.56
2022-08-16T11:35:13.529Z,100040.81
2022-08-16T11:40:37.735Z,100041.38
2022-08-16T11:43:06.391Z,100046.06
2022-08-16T11:45:35.409Z,100046.94
2022-08-16T11:48:04.661Z,100059.38
2022-08-16T11:50:33.980Z,100047.75
2022-08-16T11:53:03.444Z,100046.63
2022-08-16T11:55:31.984Z,100054.06
2022-08-16T11:58:00.174Z,100038.00
2022-08-16T12:00:34.125Z,100046.00
2022-08-16T12:03:15.615Z,100043.78
2022-08-16T12:05:44.384Z,100047.69
2022-08-16T12:08:11.816Z,100045.59
2022-08-16T12:10:43.099Z,100054.00
2022-08-16T12:13:15.037Z,100046.53
2022-08-16T12:15:42.131Z,100028.63
2022-08-16T12:18:09.015Z,100026.56
2022-08-16T12:20:41.689Z,100035.81
2022-08-16T12:23:08.411Z,100041.44
2022-08-16T12:25:35.874Z,100036.22
2022-08-16T12:28:08.236Z,100035.88
2022-08-16T12:30:39.153Z,100014.00
2022-08-16T12:33:08.725Z,100006.63
2022-08-16T12:35:38.232Z,100030.75
2022-08-16T12:38:08.833Z,100040.78
2022-08-16T12:40:57.182Z,100048.25
2022-08-16T12:43:25.313Z,100056.94
2022-08-16T12:45:54.129Z,100052.44
2022-08-16T12:48:43.811Z,100043.00
2022-08-16T12:51:19.459Z,100061.25
2022-08-16T12:53:47.698Z,100056.41
2022-08-16T12:56:14.324Z,100049.78
2022-08-16T12:58:49.301Z,100033.72
2022-08-16T13:01:22.743Z,100049.53
2022-08-16T13:03:59.283Z,100036.50
2022-08-16T13:06:36.441Z,100061.56
2022-08-16T13:09:18.225Z,100048.00
2022-08-16T13:11:57.199Z,100042.88
2022-08-16T13:14:31.311Z,100045.78
2022-08-16T13:17:02.582Z,100037.75
2022-08-16T13:19:56.301Z,100043.91
2022-08-16T13:22:19.604Z,100030.78
2022-08-16T13:24:46.645Z,100048.31
2022-08-16T13:27:13.536Z,100036.31
2022-08-16T13:29:43.795Z,100048.63
2022-08-16T13:32:39.461Z,100051.28
2022-08-16T13:34:59.217Z,100040.41
2022-08-16T13:37:27.750Z,100045.25
2022-08-16T13:39:54.614Z,100050.13
2022-08-16T13:42:21.747Z,100041.69
2022-08-16T13:44:58.211Z,100017.69
2022-08-16T13:47:30.260Z,100016.84
2022-08-16T13:49:57.015Z,100044.16
2022-08-16T13:52:25.080Z,100047.78
2022-08-16T13:54:51.719Z,100044.53
2022-08-16T13:57:18.241Z,100048.44
2022-08-16T13:59:46.936Z,100019.38
2022-08-16T14:02:17.232Z,100039.97
2022-08-16T14:04:44.730Z,100028.88
2022-08-16T14:07:19.898Z,100028.16
2022-08-16T14:09:51.099Z,100035.03
2022-08-16T14:12:28.045Z,100021.78
2022-08-16T14:14:57.413Z,100008.03
2022-08-16T14:17:25.357Z,100036.09
2022-08-16T14:19:52.678Z,100032.22
2022-08-16T14:22:35.826Z,100030.88
2022-08-16T14:25:10.516Z,100035.91
2022-08-16T14:27:46.116Z,100026.72
2022-08-16T14:30:16.426Z,100017.13
2022-08-16T14:32:50.862Z,100035.16
2022-08-16T14:35:36.592Z,100040.44
2022-08-16T14:38:11.294Z,100035.94
2022-08-16T14:40:52.764Z,100020.13
2022-08-16T14:43:23.349Z,100027.16
2022-08-16T14:45:50.552Z,100039.25
2022-08-16T14:48:25.080Z,100026.88
2022-08-16T14:50:52.765Z,100019.97
2022-08-16T14:53:22.888Z,100009.44
2022-08-16T14:55:49.441Z,100040.47
2022-08-16T14:58:19.381Z,100017.84
2022-08-16T15:00:47.237Z,100003.69
2022-08-16T15:03:13.849Z,100024.41
2022-08-16T15:05:41.933Z,100038.00
2022-08-16T15:08:09.917Z,100044.63
2022-08-16T15:10:39.046Z,100036.75
2022-08-16T15:13:10.751Z,99999.16
2022-08-16T15:15:39.771Z,100034.69
2022-08-16T15:18:11.859Z,100033.63
2022-08-16T15:20:41.140Z,100010.31
2022-08-16T15:23:08.699Z,100034.31
2022-08-16T15:25:41.215Z,100039.75
2022-08-16T15:28:23.600Z,100040.97
2022-08-16T15:31:00.939Z,100019.75
2022-08-16T15:33:32.089Z,100039.44
2022-08-16T15:35:59.418Z,100012.50
2022-08-16T15:38:54.744Z,100047.34
2022-08-16T15:41:36.525Z,100046.91
2022-08-16T15:44:10.854Z,100027.72
2022-08-16T15:46:54.931Z,100049.13
2022-08-16T15:49:37.849Z,100049.03
2022-08-16T15:52:20.910Z,100029.97
2022-08-16T15:54:55.785Z,100038.72
2022-08-16T15:57:27.385Z,100054.22
2022-08-16T15:59:56.087Z,100050.44
2022-08-16T16:02:29.653Z,100036.25
2022-08-16T16:05:04.360Z,100057.75
2022-08-16T16:07:33.323Z,100045.41
2022-08-16T16:10:05.805Z,100034.91
2022-08-16T16:12:51.065Z,100037.38
2022-08-16T16:15:29.557Z,100054.25
2022-08-16T16:17:56.598Z,100049.88
2022-08-16T16:20:27.606Z,100052.19
2022-08-16T16:23:06.482Z,100054.72
2022-08-16T16:25:38.519Z,100057.63
2022-08-16T16:28:12.841Z,100053.56
2022-08-16T16:30:56.539Z,100055.00
2022-08-16T16:33:26.864Z,100046.97
2022-08-16T16:35:57.833Z,100020.13
2022-08-16T16:38:28.701Z,100053.22
2022-08-16T16:40:55.383Z,100031.22
2022-08-16T16:43:26.033Z,100058.81
2022-08-16T16:45:58.904Z,100049.44
2022-08-16T16:48:29.623Z,100044.09
2022-08-16T16:51:09.478Z,100049.03
2022-08-16T16:53:42.237Z,100058.47
2022-08-16T16:56:20.299Z,100058.88
2022-08-16T16:58:57.511Z,100058.63
2022-08-16T17:01:56.398Z,100073.41
2022-08-16T17:04:23.971Z,100068.47
2022-08-16T17:06:58.196Z,100038.44
2022-08-16T17:09:24.856Z,100068.09
2022-08-16T17:11:55.486Z,100060.50
2022-08-16T17:14:32.393Z,100071.16
2022-08-16T17:17:00.772Z,100075.56
2022-08-16T17:19:31.750Z,100052.22
2022-08-16T17:21:59.574Z,100071.94
2022-08-16T17:24:31.256Z,100067.53
2022-08-16T17:27:07.709Z,100081.31
2022-08-16T17:29:34.870Z,100076.69
2022-08-16T17:32:33.587Z,100071.72
2022-08-16T17:35:03.033Z,100070.94
2022-08-16T17:37:48.890Z,100065.13
2022-08-16T17:40:47.305Z,100075.22
2022-08-16T17:43:16.300Z,100081.31
2022-08-16T17:45:43.418Z,100079.09
2022-08-16T17:48:10.017Z,100082.94
2022-08-16T17:50:37.449Z,100077.19
2022-08-16T17:53:04.476Z,100071.97
2022-08-16T17:55:34.040Z,100091.75
2022-08-16T17:58:23.603Z,100087.88
2022-08-16T18:00:56.282Z,100080.47
2022-08-16T18:04:02.962Z,100047.31
2022-08-16T18:06:22.982Z,100079.66
2022-08-16T18:08:51.190Z,100079.97
2022-08-16T18:11:25.735Z,100089.59
2022-08-16T18:13:53.463Z,100051.88
2022-08-16T18:16:20.633Z,100085.31
2022-08-16T18:18:47.223Z,100090.78
2022-08-16T18:21:35.352Z,100094.03
2022-08-16T18:24:05.423Z,100096.66
2022-08-16T18:26:31.925Z,100107.34
2022-08-16T18:28:58.482Z,100104.41
2022-08-16T18:31:25.206Z,100048.19
2022-08-16T18:33:54.771Z,100113.03
2022-08-16T18:36:23.701Z,100104.31
2022-08-16T18:38:50.658Z,100120.38
2022-08-16T18:41:18.647Z,100120.03
2022-08-16T18:43:58.839Z,100126.47
2022-08-16T18:46:31.816Z,100125.03
2022-08-16T18:48:58.661Z,100132.19
2022-08-16T18:51:25.903Z,100133.13
2022-08-16T18:53:53.068Z,100127.06
2022-08-16T18:56:19.675Z,100138.88
2022-08-16T18:58:46.476Z,100140.25
2022-08-16T19:01:13.147Z,100056.75
2022-08-16T19:03:39.865Z,100136.47
2022-08-16T19:06:13.656Z,100137.03
2022-08-16T19:08:41.892Z,100153.06
2022-08-16T19:11:18.858Z,100155.06
2022-08-16T19:13:45.642Z,100152.78
2022-08-16T19:16:13.068Z,100164.91
2022-08-16T19:18:40.056Z,100163.47
2022-08-16T19:21:14.538Z,100158.34
2022-08-16T19:23:42.531Z,100150.81
2022-08-16T19:26:24.403Z,100169.06
2022-08-16T19:28:59.854Z,100164.59
2022-08-16T19:31:33.399Z,100143.09
2022-08-16T19:34:00.437Z,100160.16
2022-08-16T19:36:35.643Z,100159.31
2022-08-16T19:39:09.211Z,100174.09
2022-08-16T19:41:40.916Z,100177.34
2022-08-16T19:44:07.568Z,100177.66
2022-08-16T19:46:34.514Z,100172.16
2022-08-16T19:49:01.298Z,100185.72
2022-08-16T19:51:28.359Z,100183.03
2022-08-16T19:53:54.879Z,100169.44
2022-08-16T19:56:25.471Z,100193.84
2022-08-16T19:59:17.598Z,100176.00
2022-08-16T20:01:42.067Z,100116.16
2022-08-16T20:04:12.235Z,100179.47
2022-08-16T20:06:39.848Z,100176.97
2022-08-16T20:09:10.463Z,100195.69
2022-08-16T20:11:42.912Z,100191.72
2022-08-16T20:14:09.864Z,100192.44
2022-08-16T20:16:36.394Z,100168.66
2022-08-16T20:19:04.090Z,100190.38
2022-08-16T20:21:30.781Z,100201.22
2022-08-16T20:24:15.756Z,100176.94
2022-08-16T20:26:44.402Z,100199.31
2022-08-16T20:29:10.933Z,100201.97
2022-08-16T20:31:37.531Z,100187.00
2022-08-16T20:34:04.391Z,100204.06
2022-08-16T20:36:30.932Z,100196.81
2022-08-16T20:38:59.875Z,100186.44
2022-08-16T20:41:27.268Z,100189.97
2022-08-16T20:43:55.012Z,100216.63
2022-08-16T20:46:22.116Z,100206.81
2022-08-16T20:48:49.034Z,100214.81
2022-08-16T20:51:16.171Z,100211.41
2022-08-16T20:53:44.160Z,100199.28
2022-08-16T20:56:11.429Z,100216.38
2022-08-16T20:58:38.328Z,100223.84
2022-08-16T21:01:05.853Z,100223.91
2022-08-16T21:03:32.546Z,100222.25
2022-08-16T21:06:01.884Z,100229.53
2022-08-16T21:08:51.830Z,100231.88
2022-08-16T21:11:16.231Z,100234.59
2022-08-16T21:13:43.146Z,100220.00
2022-08-16T21:16:10.243Z,100216.22
2022-08-16T21:18:36.787Z,100235.31
2022-08-16T21:21:03.434Z,100242.94
2022-08-16T21:23:30.146Z,100245.69
2022-08-16T21:25:58.370Z,100209.50
2022-08-16T21:28:39.221Z,100241.22
2022-08-16T21:31:13.691Z,100225.34
2022-08-16T21:33:40.796Z,100257.19
2022-08-16T21:36:07.617Z,100261.13
2022-08-16T21:38:34.201Z,100264.91
2022-08-16T21:41:02.323Z,100238.97
2022-08-16T21:43:32.273Z,100259.81
2022-08-16T21:46:03.045Z,100216.59
2022-08-16T21:48:34.552Z,100243.56
2022-08-16T21:51:04.733Z,100249.16
2022-08-16T21:53:31.272Z,100247.47
2022-08-16T21:55:58.948Z,100249.09
2022-08-16T21:58:25.845Z,100253.47
2022-08-16T22:00:52.769Z,100252.50
2022-08-16T22:03:19.283Z,100251.88
2022-08-16T22:05:46.873Z,100252.72
2022-08-16T22:08:34.122Z,100259.44
2022-08-16T22:11:06.923Z,100240.00
2022-08-16T22:13:36.860Z,100265.34
2022-08-16T22:16:07.194Z,100248.41
2022-08-16T22:18:33.684Z,100247.72
2022-08-16T22:21:00.240Z,100254.09
2022-08-16T22:23:26.895Z,100256.13
2022-08-16T22:25:55.024Z,100241.31
2022-08-16T22:28:22.758Z,100252.91
2022-08-16T22:30:50.285Z,100216.97
2022-08-16T22:33:27.556Z,100246.88
2022-08-16T22:35:59.811Z,100261.69
2022-08-16T22:38:55.896Z,100237.09
2022-08-16T22:41:13.926Z,100218.34
2022-08-16T22:43:44.855Z,100173.03
2022-08-16T22:46:11.391Z,100256.94
2022-08-16T22:48:39.391Z,100244.25
2022-08-16T22:51:09.458Z,100262.59
2022-08-16T22:53:37.400Z,100233.97
2022-08-16T22:56:04.843Z,100234.56
2022-08-16T22:58:36.555Z,100246.28
2022-08-16T23:01:05.740Z,100251.47
2022-08-16T23:03:33.004Z,100230.38
2022-08-16T23:06:00.444Z,100246.63
2022-08-16T23:08:38.449Z,100212.50
2022-08-16T23:11:09.091Z,100232.72
2022-08-16T23:13:35.734Z,100251.84
2022-08-16T23:16:10.732Z,100252.44
2022-08-16T23:18:39.390Z,100230.69
2022-08-16T23:21:09.201Z,100238.53
2022-08-16T23:23:36.193Z,100253.38
2022-08-16T23:26:46.488Z,100241.31
2022-08-16T23:28:50.070Z,100222.56
2022-08-16T23:31:16.701Z,100240.09
2022-08-16T23:33:43.207Z,100214.91
2022-08-16T23:36:10.213Z,100234.31
2022-08-16T23:38:39.356Z,100235.38
2022-08-16T23:41:09.307Z,100230.78
2022-08-16T23:43:44.303Z,100208.75
2022-08-16T23:46:15.480Z,100234.09
2022-08-16T23:49:57.594Z,100232.56
2022-08-16T23:51:28.953Z,100217.00
2022-08-16T23:53:56.148Z,100223.53
2022-08-16T23:56:22.723Z,100223.78
2022-08-16T23:58:53.684Z,100224.22
